Time;durP1;ratioP1;P1;durP2;ratioP2;P2;SDS_P1;SDS_P2;PMS_P1;PMS_P2;Temp;Humidity;BMP_temperature;BMP_pressure;BME280_temperature;BME280_humidity;BME280_pressure;Samples;Min_cycle;Max_cycle;Signal;HPM_P1;HPM_P2
2021/04/22 00:02:59;;;;;;;31.68;19.05;;;;;;;12.00;57.13;98670.38;262557;1105;116244;-68
2021/04/22 00:08:08;;;;;;;30.73;19.48;;;;;;;12.03;57.56;98670.16;262537;1100;115279;-67
2021/04/22 00:13:16;;;;;;;30.35;19.73;;;;;;;12.03;57.12;98673.67;262971;1104;115636;-66
2021/04/22 00:18:23;;;;;;;32.73;19.73;;;;;;;12.03;57.43;98662.16;262476;1102;115316;-65
2021/04/22 00:23:27;;;;;;;31.57;19.97;;;;;;;11.96;57.33;98669.75;263013;1104;115612;-68
2021/04/22 00:28:31;;;;;;;29.70;19.90;;;;;;;11.91;57.03;98673.70;262516;1102;115791;-68
2021/04/22 00:33:34;;;;;;;34.25;19.18;;;;;;;11.86;57.74;98670.55;262649;1100;115254;-68
2021/04/22 00:38:44;;;;;;;29.55;19.03;;;;;;;11.86;57.73;98666.06;262655;1099;115236;-69
2021/04/22 00:43:52;;;;;;;31.98;20.40;;;;;;;11.87;57.72;98667.75;262526;1102;115662;-69
2021/04/22 00:48:59;;;;;;;30.30;20.10;;;;;;;11.87;57.85;98667.75;262624;1101;115613;-70
2021/04/22 00:54:18;;;;;;;33.63;21.23;;;;;;;11.88;58.14;98672.11;262661;1105;115547;-67
2021/04/22 00:59:22;;;;;;;35.75;22.38;;;;;;;11.90;58.08;98672.02;262423;1101;115060;-67
2021/04/22 01:04:25;;;;;;;32.35;21.63;;;;;;;11.89;57.79;98678.30;262834;1104;115473;-66
2021/04/22 01:09:28;;;;;;;33.18;21.95;;;;;;;11.87;58.49;98672.23;262512;1102;115356;-67
2021/04/22 01:14:30;;;;;;;35.03;23.88;;;;;;;11.84;57.92;98668.82;262522;1105;115199;-67
2021/04/22 01:19:33;;;;;;;35.20;24.20;;;;;;;11.80;57.78;98675.31;262534;1101;115484;-66
2021/04/22 01:24:36;;;;;;;38.78;24.60;;;;;;;11.76;58.25;98667.66;263376;1104;115855;-67
2021/04/22 01:29:39;;;;;;;36.73;24.45;;;;;;;11.72;58.38;98671.48;262937;1100;115517;-64
2021/04/22 01:34:42;;;;;;;40.10;25.40;;;;;;;11.69;58.24;98663.74;262520;1105;115625;-64
2021/04/22 01:39:45;;;;;;;43.05;25.05;;;;;;;11.63;58.53;98673.02;262457;1100;115335;-64
2021/04/22 01:44:48;;;;;;;37.68;26.30;;;;;;;11.65;58.20;98680.89;262908;1104;115272;-66
2021/04/22 01:49:51;;;;;;;40.77;26.43;;;;;;;11.72;58.92;98675.03;262530;1100;115502;-67
2021/04/22 01:55:03;;;;;;;38.30;25.85;;;;;;;11.75;58.84;98671.27;262572;1105;115324;-67
2021/04/22 02:00:19;;;;;;;43.70;25.70;;;;;;;11.75;58.47;98673.94;262902;1100;115423;-67
2021/04/22 02:05:27;;;;;;;37.40;23.30;;;;;;;11.77;58.87;98656.88;262846;1104;116148;-66
2021/04/22 02:10:30;;;;;;;36.40;25.65;;;;;;;11.76;58.70;98657.00;262957;1100;116043;-65
2021/04/22 02:15:33;;;;;;;40.15;26.60;;;;;;;11.65;58.72;98652.45;262833;1104;116541;-66
2021/04/22 02:20:36;;;;;;;41.00;26.60;;;;;;;11.51;59.44;98658.75;262567;1099;115424;-68
2021/04/22 02:25:40;;;;;;;40.13;26.63;;;;;;;11.44;59.52;98654.83;262861;1104;115742;-69
2021/04/22 02:30:47;;;;;;;37.50;24.23;;;;;;;11.33;59.47;98647.61;262643;1099;115820;-68
2021/04/22 02:35:50;;;;;;;32.23;22.23;;;;;;;11.31;59.97;98651.33;262257;1104;115455;-69
2021/04/22 02:40:53;;;;;;;31.88;21.25;;;;;;;11.29;59.96;98651.45;262938;1099;115575;-68
2021/04/22 02:45:56;;;;;;;32.75;22.43;;;;;;;11.26;59.90;98656.16;262914;1104;116259;-68
2021/04/22 02:51:00;;;;;;;33.30;21.33;;;;;;;11.20;59.78;98643.27;262932;1099;115651;-68
2021/04/22 02:56:03;;;;;;;31.15;20.00;;;;;;;11.23;60.00;98640.39;263030;1104;115224;-68
2021/04/22 03:01:05;;;;;;;32.05;21.08;;;;;;;11.27;60.47;98652.52;262854;1102;115464;-68
2021/04/22 03:06:08;;;;;;;30.28;21.43;;;;;;;11.32;60.42;98627.27;262845;1104;115631;-69
2021/04/22 03:11:13;;;;;;;31.45;21.20;;;;;;;11.32;60.14;98640.59;262510;1101;115315;-69
2021/04/22 03:16:23;;;;;;;34.03;22.87;;;;;;;11.31;60.16;98640.67;262569;1104;116248;-70
2021/04/22 03:21:26;;;;;;;32.28;22.20;;;;;;;11.27;59.83;98631.21;262637;1104;115384;-68
2021/04/22 03:26:28;;;;;;;36.13;23.63;;;;;;;11.24;60.13;98637.63;262658;1104;115449;-66
2021/04/22 03:31:31;;;;;;;32.25;23.18;;;;;;;11.15;60.34;98648.08;262500;1102;115626;-66
2021/04/22 03:36:34;;;;;;;36.30;23.98;;;;;;;11.09;60.72;98652.86;262454;1105;115335;-66
2021/04/22 03:41:37;;;;;;;33.15;23.28;;;;;;;11.02;60.64;98643.61;262531;1099;115206;-65
2021/04/22 03:46:39;;;;;;;32.43;22.10;;;;;;;10.96;60.96;98641.37;262836;1100;115817;-66
2021/04/22 03:51:42;;;;;;;35.70;22.70;;;;;;;10.96;60.55;98646.69;262555;1098;115461;-66
2021/04/22 03:56:45;;;;;;;32.10;21.93;;;;;;;10.98;60.58;98652.78;262578;1105;115512;-65
2021/04/22 04:01:50;;;;;;;33.63;23.68;;;;;;;11.01;60.76;98655.23;262342;1100;115523;-67
2021/04/22 04:06:53;;;;;;;35.90;24.43;;;;;;;11.05;60.58;98648.72;262462;1105;115670;-66
2021/04/22 04:11:57;;;;;;;;;;;;;;;11.03;61.08;98657.77;262519;1100;115767;-68
2021/04/22 04:17:01;;;;;;;38.05;24.15;;;;;;;10.97;60.97;98659.07;263377;1104;102436;-67
2021/04/22 04:22:04;;;;;;;35.03;23.75;;;;;;;10.92;60.83;98663.84;262805;1100;115874;-66
2021/04/22 04:27:08;;;;;;;33.73;23.73;;;;;;;10.94;61.49;98672.59;263055;1104;115321;-68
2021/04/22 04:32:11;;;;;;;35.53;25.13;;;;;;;10.99;61.54;98682.91;262461;1101;115152;-69
2021/04/22 04:37:14;;;;;;;35.88;24.18;;;;;;;10.98;61.19;98686.54;262496;1105;115920;-64
2021/04/22 04:42:17;;;;;;;36.28;23.90;;;;;;;10.98;61.29;98692.72;262507;1100;115261;-64
2021/04/22 04:47:20;;;;;;;36.23;23.45;;;;;;;10.98;61.23;98698.04;262441;1105;115933;-66
2021/04/22 04:52:23;;;;;;;35.03;22.85;;;;;;;11.03;61.22;98695.05;262677;1100;115138;-67
2021/04/22 04:57:26;;;;;;;36.60;23.23;;;;;;;11.08;61.53;98695.59;262475;1105;115130;-68
2021/04/22 05:02:29;;;;;;;32.93;23.70;;;;;;;11.17;61.17;98700.26;262654;1099;115313;-67
2021/04/22 05:07:32;;;;;;;32.43;23.18;;;;;;;11.27;61.80;98703.13;262512;1105;115707;-68
2021/04/22 05:12:35;;;;;;;33.45;23.35;;;;;;;11.42;61.71;98703.88;262503;1100;115607;-67
2021/04/22 05:17:38;;;;;;;32.55;22.45;;;;;;;11.46;61.33;98702.70;262393;1105;116015;-67
2021/04/22 05:22:41;;;;;;;33.60;22.13;;;;;;;11.48;61.26;98704.30;262421;1102;115323;-68
2021/04/22 05:27:43;;;;;;;31.93;22.63;;;;;;;11.47;61.28;98723.05;262494;1105;115012;-67
2021/04/22 05:32:48;;;;;;;30.13;21.55;;;;;;;11.53;61.44;98734.13;262845;1100;116100;-67
2021/04/22 05:37:51;;;;;;;30.58;21.60;;;;;;;11.56;61.35;98733.91;262418;1105;115880;-66
2021/04/22 05:42:54;;;;;;;36.85;23.38;;;;;;;11.51;60.33;98730.70;262641;1101;115638;-65
2021/04/22 05:47:57;;;;;;;32.73;22.48;;;;;;;11.48;61.03;98728.28;262538;1100;115807;-64
2021/04/22 05:52:59;;;;;;;35.90;23.35;;;;;;;11.53;60.96;98735.94;262701;1098;115325;-65
2021/04/22 05:58:02;;;;;;;34.33;23.85;;;;;;;11.61;61.48;98746.90;262617;1105;115561;-68
2021/04/22 06:03:05;;;;;;;32.53;24.50;;;;;;;11.60;60.50;98756.71;262941;1099;115089;-68
2021/04/22 06:08:08;;;;;;;36.05;24.40;;;;;;;11.66;60.58;98750.11;262704;1104;115634;-68
2021/04/22 06:13:13;;;;;;;37.68;25.38;;;;;;;11.68;60.69;98755.31;262602;1099;115603;-68
2021/04/22 06:18:15;;;;;;;32.90;22.88;;;;;;;11.71;60.13;98760.42;262473;1104;115179;-67
2021/04/22 06:23:18;;;;;;;36.25;24.33;;;;;;;11.75;59.86;98759.24;262441;1100;115421;-68
2021/04/22 06:28:21;;;;;;;34.40;23.33;;;;;;;11.78;60.04;98764.36;262523;1105;115113;-67
2021/04/22 06:33:24;;;;;;;35.68;24.48;;;;;;;11.86;59.33;98772.72;262439;1100;115362;-69
2021/04/22 06:38:29;;;;;;;36.45;23.68;;;;;;;11.95;60.29;98765.85;262533;1104;115384;-68
2021/04/22 06:43:31;;;;;;;39.23;23.33;;;;;;;12.00;59.26;98774.39;262870;1100;115466;-68
2021/04/22 06:48:34;;;;;;;37.63;24.23;;;;;;;12.04;59.17;98775.86;262422;1105;115316;-67
2021/04/22 06:53:37;;;;;;;36.33;22.83;;;;;;;12.01;58.79;98784.93;262522;1100;115604;-67
2021/04/22 06:58:40;;;;;;;33.78;22.18;;;;;;;12.06;59.09;98784.63;262503;1104;115944;-68
2021/04/22 07:03:43;;;;;;;35.08;22.35;;;;;;;12.12;59.15;98785.97;262604;1100;115337;-67
2021/04/22 07:08:48;;;;;;;35.80;22.73;;;;;;;12.22;59.03;98795.02;262489;1105;115937;-67
2021/04/22 07:13:51;;;;;;;31.30;19.47;;;;;;;12.31;59.42;98799.69;263110;1100;115262;-68
2021/04/22 07:18:53;;;;;;;25.05;17.75;;;;;;;12.38;59.13;98818.77;262704;1104;115802;-66
2021/04/22 07:23:56;;;;;;;30.93;18.18;;;;;;;12.36;58.49;98823.36;262832;1100;115222;-66
2021/04/22 07:28:59;;;;;;;29.83;17.23;;;;;;;12.31;58.10;98840.56;262379;1105;115583;-67
2021/04/22 07:34:03;;;;;;;30.08;18.23;;;;;;;12.26;57.70;98834.72;262722;1104;115583;-67
2021/04/22 07:39:06;;;;;;;24.08;15.65;;;;;;;12.25;57.99;98846.33;262406;1100;115244;-66
2021/04/22 07:44:09;;;;;;;27.10;16.10;;;;;;;12.21;57.73;98842.19;262506;1104;115443;-67
2021/04/22 07:49:12;;;;;;;26.05;18.90;;;;;;;12.17;57.66;98859.38;262892;1100;115486;-67
2021/04/22 07:54:15;;;;;;;28.23;19.53;;;;;;;12.15;58.28;98868.45;262661;1100;115214;-67
2021/04/22 07:59:18;;;;;;;32.35;22.30;;;;;;;12.10;56.93;98870.61;262440;1102;115281;-67
2021/04/22 08:04:21;;;;;;;30.70;21.20;;;;;;;12.04;57.75;98890.55;262413;1104;115243;-67
2021/04/22 08:09:24;;;;;;;27.60;21.43;;;;;;;11.95;57.98;98897.38;262678;1101;115246;-67
2021/04/22 08:14:26;;;;;;;28.35;20.55;;;;;;;11.84;58.10;98907.95;262813;1104;115233;-69
2021/04/22 08:19:32;;;;;;;28.55;20.50;;;;;;;11.72;57.62;98925.63;262451;1101;115252;-68
2021/04/22 08:24:35;;;;;;;29.20;22.55;;;;;;;11.61;57.96;98928.99;262663;1105;115221;-67
2021/04/22 08:29:38;;;;;;;26.73;20.03;;;;;;;11.50;57.74;98931.54;262499;1101;115328;-67
2021/04/22 08:34:40;;;;;;;27.20;20.28;;;;;;;11.44;58.55;98931.95;262426;1105;115233;-67
2021/04/22 08:39:43;;;;;;;23.90;16.15;;;;;;;11.31;57.91;98945.27;262518;1100;115425;-67
2021/04/22 08:44:46;;;;;;;13.75;9.60;;;;;;;10.96;57.83;98960.03;262401;1104;115601;-67
2021/04/22 08:49:49;;;;;;;11.15;7.00;;;;;;;10.76;57.78;98963.97;262462;1101;115249;-69
2021/04/22 08:54:53;;;;;;;11.13;7.58;;;;;;;10.61;57.67;98987.95;262546;1104;115148;-68
2021/04/22 08:59:56;;;;;;;8.67;6.20;;;;;;;10.37;57.66;99003.64;262468;1100;115654;-68
2021/04/22 09:04:59;;;;;;;13.40;5.80;;;;;;;10.11;57.47;99015.83;262904;1104;114862;-69
2021/04/22 09:10:03;;;;;;;6.80;5.35;;;;;;;9.89;57.34;99029.56;262518;1102;114886;-67
2021/04/22 09:15:09;;;;;;;6.88;5.30;;;;;;;9.69;57.43;99032.55;262631;1105;114892;-67
2021/04/22 09:20:13;;;;;;;7.40;5.58;;;;;;;9.64;58.46;99042.57;262418;1101;116240;-68
2021/04/22 09:25:19;;;;;;;8.93;6.18;;;;;;;9.41;58.39;99043.92;262699;1104;115216;-68
2021/04/22 09:30:38;;;;;;;12.43;7.18;;;;;;;9.27;58.77;99059.76;262920;1100;114666;-67
2021/04/22 09:35:40;;;;;;;8.25;5.78;;;;;;;9.10;58.93;99079.28;262618;1104;115111;-67
2021/04/22 09:40:45;;;;;;;9.20;5.18;;;;;;;9.02;59.28;99090.33;262463;1101;114594;-67
2021/04/22 09:45:51;;;;;;;8.30;5.20;;;;;;;8.87;59.17;99099.14;262946;1105;114732;-66
2021/04/22 09:50:54;;;;;;;8.45;5.48;;;;;;;8.73;60.24;99086.63;263359;1099;114803;-67
2021/04/22 09:56:09;;;;;;;7.28;4.80;;;;;;;8.61;60.24;99089.92;263470;1104;114453;-67
2021/04/22 10:01:21;;;;;;;6.65;4.15;;;;;;;8.54;60.64;99094.69;262949;1101;114556;-67
2021/04/22 10:06:24;;;;;;;8.18;4.50;;;;;;;8.38;60.24;99105.23;263470;1104;114638;-67
2021/04/22 10:11:26;;;;;;;8.35;4.63;;;;;;;8.34;60.71;99093.05;263471;1099;115068;-67
2021/04/22 10:16:34;;;;;;;11.60;5.47;;;;;;;8.32;60.90;99091.41;262532;1104;114411;-72
2021/04/22 10:21:42;;;;;;;12.65;6.35;;;;;;;8.29;60.96;99095.95;262687;1102;114672;-74
2021/04/22 10:26:45;;;;;;;12.00;5.68;;;;;;;8.33;60.46;99078.09;262821;1104;114825;-73
2021/04/22 10:31:48;;;;;;;10.95;6.35;;;;;;;8.30;60.67;99079.09;262439;1101;114553;-72
2021/04/22 10:36:53;;;;;;;14.78;6.30;;;;;;;8.37;61.08;99068.17;262497;1105;115029;-73
2021/04/22 10:41:56;;;;;;;12.95;6.63;;;;;;;8.50;61.68;99066.63;263011;1100;115258;-70
2021/04/22 10:46:59;;;;;;;13.20;6.83;;;;;;;8.73;61.08;99068.91;262758;1104;114990;-72
2021/04/22 10:52:15;;;;;;;11.68;6.80;;;;;;;9.03;61.60;99068.14;262737;1099;115726;-75
2021/04/22 10:57:21;;;;;;;12.13;6.67;;;;;;;9.14;61.16;99089.67;262505;1105;115011;-74
2021/04/22 11:02:24;;;;;;;14.65;7.38;;;;;;;9.09;60.42;99086.39;262992;1100;114839;-73
2021/04/22 11:07:27;;;;;;;17.35;7.85;;;;;;;9.05;60.58;99084.86;262782;1104;114775;-73
2021/04/22 11:12:31;;;;;;;18.23;9.38;;;;;;;9.10;60.77;99088.09;262739;1100;115153;-73
2021/04/22 11:17:37;;;;;;;22.13;11.13;;;;;;;9.15;61.09;99098.48;262536;1105;115468;-72
2021/04/22 11:22:41;;;;;;;20.85;11.83;;;;;;;9.14;61.22;99089.67;262664;1100;115500;-73
2021/04/22 11:27:48;;;;;;;24.98;13.05;;;;;;;9.22;60.64;99082.13;262519;1105;115100;-73
2021/04/22 11:32:54;;;;;;;20.98;11.38;;;;;;;9.32;60.87;99077.16;262711;1100;114943;-72
2021/04/22 11:38:07;;;;;;;23.25;11.58;;;;;;;9.42;61.06;99075.69;262511;1105;115190;-72
2021/04/22 11:43:25;;;;;;;20.63;10.83;;;;;;;9.54;60.69;99065.30;262603;1101;115283;-74
2021/04/22 11:48:41;;;;;;;20.28;13.35;;;;;;;9.62;60.69;99068.39;262174;1105;115221;-71
2021/04/22 11:53:45;;;;;;;22.55;14.30;;;;;;;9.64;60.38;99069.99;263049;1100;115347;-72
2021/04/22 11:58:53;;;;;;;31.68;17.60;;;;;;;9.64;60.11;99064.68;263214;1104;115278;-73
2021/04/22 12:03:56;;;;;;;33.28;17.95;;;;;;;9.65;60.52;99069.07;262806;1100;115036;-73
2021/04/22 12:08:59;;;;;;;28.53;17.68;;;;;;;9.61;60.34;99067.55;262587;1105;115094;-74
2021/04/22 12:14:05;;;;;;;29.80;17.48;;;;;;;9.56;60.22;99055.45;262815;1098;115686;-73
2021/04/22 12:19:10;;;;;;;35.85;17.63;;;;;;;9.55;60.33;99057.27;262777;1100;115054;-73
2021/04/22 12:24:13;;;;;;;26.38;15.28;;;;;;;9.52;60.21;99054.78;262632;1100;116128;-71
2021/04/22 12:29:17;;;;;;;22.73;13.48;;;;;;;9.52;60.32;99046.81;262672;1101;115584;-73
2021/04/22 12:34:23;;;;;;;23.65;14.60;;;;;;;9.47;59.86;99032.92;262458;1100;115118;-71
2021/04/22 12:39:53;;;;;;;26.30;14.25;;;;;;;9.50;59.99;99038.06;262677;1105;115129;-72
2021/04/22 12:45:07;;;;;;;21.80;13.00;;;;;;;9.60;60.10;99043.70;262938;1100;115007;-73
2021/04/22 12:50:26;;;;;;;20.88;13.03;;;;;;;9.67;60.25;99042.39;263286;1104;115479;-73
2021/04/22 12:55:37;;;;;;;21.75;13.33;;;;;;;10.15;60.27;99027.13;262723;1099;117478;-72
2021/04/22 13:00:47;;;;;;;25.10;11.83;;;;;;;10.63;60.09;99030.42;262704;1104;115332;-72
2021/04/22 13:06:02;;;;;;;20.03;11.03;;;;;;;11.02;59.29;99032.38;262888;1099;115138;-74
2021/04/22 13:11:08;;;;;;;18.63;9.95;;;;;;;11.27;58.53;99020.14;263260;1104;115294;-72
2021/04/22 13:16:16;;;;;;;19.25;10.78;;;;;;;11.69;57.91;99021.80;262787;1105;115244;-73
2021/04/22 13:21:27;;;;;;;18.53;9.45;;;;;;;11.96;57.29;99021.78;262813;1100;115215;-72
2021/04/22 13:26:32;;;;;;;20.15;9.50;;;;;;;12.27;56.95;99006.34;262651;1104;115095;-72
2021/04/22 13:31:36;;;;;;;23.00;10.28;;;;;;;12.54;55.60;99004.39;262540;1099;115166;-72
2021/04/22 13:36:45;;;;;;;18.23;9.68;;;;;;;12.74;55.18;99002.98;262888;1100;115803;-70
2021/04/22 13:41:48;;;;;;;15.73;9.05;;;;;;;12.96;54.76;98996.94;263234;1100;114943;-71
2021/04/22 13:46:53;;;;;;;16.20;8.70;;;;;;;13.21;54.53;98989.80;263014;1104;115233;-71
2021/04/22 13:52:20;;;;;;;18.83;9.08;;;;;;;13.39;53.48;98979.61;262779;1100;115530;-71
2021/04/22 13:57:26;;;;;;;16.78;8.88;;;;;;;13.65;53.75;98972.29;262883;1100;115537;-71
2021/04/22 14:02:37;;;;;;;16.95;8.85;;;;;;;13.75;52.87;98975.97;263416;1100;115258;-72
2021/04/22 14:07:47;;;;;;;19.25;9.43;;;;;;;13.98;52.24;98976.04;262497;1104;115198;-71
2021/04/22 14:12:50;;;;;;;19.03;10.45;;;;;;;14.09;52.55;98954.64;262619;1100;114799;-70
2021/04/22 14:17:58;;;;;;;22.40;10.40;;;;;;;14.14;51.80;98963.19;262682;1104;115862;-70
2021/04/22 14:23:01;;;;;;;18.48;9.45;;;;;;;14.10;51.24;98951.02;263177;1100;115914;-72
2021/04/22 14:28:04;;;;;;;20.60;9.88;;;;;;;14.13;51.11;98961.45;262819;1104;115465;-72
2021/04/22 14:33:07;;;;;;;20.95;9.68;;;;;;;14.04;50.56;98956.84;262589;1105;115064;-73
2021/04/22 14:38:10;;;;;;;20.70;9.63;;;;;;;13.76;50.34;98958.97;262553;1101;117477;-73
2021/04/22 14:43:14;;;;;;;19.08;9.78;;;;;;;13.34;49.51;98966.57;262662;1104;115791;-72
2021/04/22 14:48:16;;;;;;;17.85;8.38;;;;;;;13.10;49.99;98957.67;262820;1100;115195;-70
2021/04/22 14:53:19;;;;;;;16.63;8.58;;;;;;;13.01;49.78;98960.07;262594;1104;115345;-71
2021/04/22 14:58:22;;;;;;;18.18;8.45;;;;;;;12.94;50.05;98961.48;262751;1100;116390;-71
2021/04/22 15:03:25;;;;;;;10.57;5.20;;;;;;;12.91;48.96;98944.83;262729;1104;115931;-71
2021/04/22 15:08:28;;;;;;;13.47;4.90;;;;;;;12.88;47.63;98964.59;263076;1100;114907;-72
2021/04/22 15:13:35;;;;;;;11.68;3.60;;;;;;;12.81;47.49;98952.66;262620;1105;115162;-72
2021/04/22 15:18:38;;;;;;;15.28;3.70;;;;;;;12.77;45.90;98960.04;262780;1103;115634;-72
2021/04/22 15:23:43;;;;;;;9.80;3.38;;;;;;;12.78;45.11;98964.41;263108;1104;115042;-72
2021/04/22 15:28:46;;;;;;;;;;;;;;;12.83;44.36;98968.55;262578;1102;115657;-72
2021/04/22 15:33:49;;;;;;;10.13;4.60;;;;;;;12.77;43.85;98961.83;262912;1104;101218;-72
2021/04/22 15:38:52;;;;;;;8.73;3.83;;;;;;;12.78;43.68;98972.42;262845;1101;115126;-72
2021/04/22 15:43:54;;;;;;;9.10;3.50;;;;;;;12.84;43.76;98965.80;262924;1100;114839;-72
2021/04/22 15:48:57;;;;;;;10.25;3.35;;;;;;;12.94;43.28;98981.98;262697;1100;115610;-72
2021/04/22 15:54:11;;;;;;;8.18;3.25;;;;;;;13.15;42.63;98982.25;262890;1104;115415;-74
2021/04/22 15:59:14;;;;;;;8.65;3.40;;;;;;;13.57;43.38;98988.07;262408;1100;115267;-73
2021/04/22 16:04:19;;;;;;;6.45;2.83;;;;;;;13.88;42.37;98987.44;262917;1104;115120;-72
2021/04/22 16:09:22;;;;;;;8.38;3.15;;;;;;;14.00;41.82;98991.02;263056;1100;115694;-72
2021/04/22 16:14:28;;;;;;;8.58;3.28;;;;;;;14.09;40.85;99000.14;262918;1104;115243;-73
2021/04/22 16:19:30;;;;;;;9.20;3.03;;;;;;;14.21;40.85;99015.27;262716;1100;115065;-71
2021/04/22 16:24:33;;;;;;;9.05;3.35;;;;;;;14.23;40.79;99013.30;262727;1100;115638;-69
2021/04/22 16:29:36;;;;;;;9.33;3.55;;;;;;;14.16;40.39;99007.60;262485;1100;115642;-69
2021/04/22 16:34:39;;;;;;;10.40;3.35;;;;;;;13.96;40.25;99014.48;262503;1105;114829;-69
2021/04/22 16:39:42;;;;;;;7.30;3.00;;;;;;;13.72;39.78;99027.02;262549;1100;115183;-70
2021/04/22 16:44:45;;;;;;;9.35;3.90;;;;;;;13.51;40.04;99029.48;262415;1105;114947;-70
2021/04/22 16:49:47;;;;;;;14.30;4.20;;;;;;;13.35;40.10;99032.45;262672;1099;114916;-70
2021/04/22 16:54:50;;;;;;;11.98;3.73;;;;;;;13.12;40.15;99035.91;262918;1104;115178;-68
2021/04/22 16:59:53;;;;;;;11.43;3.48;;;;;;;12.94;40.58;99038.95;262776;1102;114860;-71
2021/04/22 17:04:56;;;;;;;7.18;2.63;;;;;;;12.77;40.06;99047.28;262789;1105;114958;-71
2021/04/22 17:09:59;;;;;;;6.48;2.55;;;;;;;12.56;39.94;99065.67;262984;1100;115319;-68
2021/04/22 17:15:02;;;;;;;7.10;2.83;;;;;;;12.40;39.02;99060.56;263096;1104;114879;-71
2021/04/22 17:20:06;;;;;;;5.38;2.80;;;;;;;12.27;38.69;99057.88;262988;1100;114648;-71
2021/04/22 17:25:10;;;;;;;6.65;2.75;;;;;;;12.15;38.32;99072.05;262684;1104;115055;-72
2021/04/22 17:30:17;;;;;;;10.50;3.35;;;;;;;12.02;38.01;99085.39;262624;1101;114671;-71
2021/04/22 17:35:23;;;;;;;7.07;2.93;;;;;;;11.86;38.70;99087.36;262557;1105;115234;-71
2021/04/22 17:40:29;;;;;;;6.65;2.70;;;;;;;11.74;37.68;99090.80;262951;1100;114734;-71
2021/04/22 17:45:39;;;;;;;6.13;2.35;;;;;;;11.61;37.86;99094.25;262751;1104;115001;-74
2021/04/22 17:50:52;;;;;;;4.28;2.53;;;;;;;11.50;37.56;99098.59;262881;1102;114835;-73
2021/04/22 17:55:58;;;;;;;8.60;2.98;;;;;;;11.39;37.96;99114.42;262752;1104;116357;-74
2021/04/22 18:01:02;;;;;;;9.83;3.58;;;;;;;11.28;37.97;99126.63;262728;1100;114756;-72
2021/04/22 18:06:05;;;;;;;8.63;3.40;;;;;;;11.21;37.77;99125.30;262821;1104;114832;-74
2021/04/22 18:11:08;;;;;;;8.17;3.63;;;;;;;11.15;38.13;99132.83;262653;1101;114839;-73
2021/04/22 18:16:11;;;;;;;13.88;4.80;;;;;;;11.07;37.92;99146.59;263112;1104;114980;-72
2021/04/22 18:21:15;;;;;;;10.70;4.83;;;;;;;10.97;37.87;99150.78;262446;1102;116786;-73
2021/04/22 18:26:18;;;;;;;10.18;4.88;;;;;;;10.88;38.25;99168.20;262458;1105;115183;-73
2021/04/22 18:31:25;;;;;;;12.80;5.55;;;;;;;10.82;38.16;99163.23;262919;1100;115215;-76
2021/04/22 18:36:36;;;;;;;12.00;5.48;;;;;;;10.73;37.91;99172.63;262891;1104;115305;-75
2021/04/22 18:41:43;;;;;;;10.95;5.68;;;;;;;10.65;37.79;99181.08;262752;1100;115198;-74
2021/04/22 18:46:49;;;;;;;10.83;5.67;;;;;;;10.59;37.68;99184.11;262887;1105;115102;-73
2021/04/22 18:51:54;;;;;;;13.88;6.25;;;;;;;10.53;37.70;99189.82;262788;1102;114921;-73
2021/04/22 18:57:02;;;;;;;14.28;5.88;;;;;;;10.43;37.78;99188.66;262435;1104;115217;-73
2021/04/22 19:02:05;;;;;;;9.35;5.13;;;;;;;10.38;37.98;99198.69;262468;1100;115207;-72
2021/04/22 19:07:11;;;;;;;14.43;5.75;;;;;;;10.35;37.67;99205.04;263314;1104;115366;-73
2021/04/22 19:12:16;;;;;;;15.08;6.63;;;;;;;10.32;37.76;99207.02;262653;1100;115008;-73
2021/04/22 19:17:27;;;;;;;15.50;7.45;;;;;;;10.25;38.23;99210.95;262725;1104;115526;-75
2021/04/22 19:22:41;;;;;;;15.30;8.05;;;;;;;10.15;37.77;99216.80;262916;1100;115727;-65
2021/04/22 19:27:45;;;;;;;19.28;9.25;;;;;;;10.10;37.89;99223.34;262959;1104;115282;-71
2021/04/22 19:32:53;;;;;;;34.70;16.40;;;;;;;10.04;38.08;99232.52;262554;1101;115141;-72
2021/04/22 19:38:12;;;;;;;20.93;9.58;;;;;;;9.97;38.80;99235.62;262946;1104;115843;-71
2021/04/22 19:43:19;;;;;;;23.48;10.48;;;;;;;9.88;38.38;99237.86;262916;1097;115309;-72
2021/04/22 19:48:25;;;;;;;20.70;9.15;;;;;;;9.80;38.77;99244.53;262591;1105;115184;-72
2021/04/22 19:53:28;;;;;;;;;;;;;;;9.73;38.87;99245.81;262562;1101;115007;-74
2021/04/22 19:58:32;;;;;;;25.85;9.15;;;;;;;9.64;39.54;99253.34;262515;1101;102912;-74
2021/04/22 20:03:42;;;;;;;18.20;8.98;;;;;;;9.57;39.73;99257.27;262491;1102;115300;-75
2021/04/22 20:08:48;;;;;;;18.88;8.73;;;;;;;9.52;39.75;99255.83;262598;1104;115024;-75
2021/04/22 20:13:53;;;;;;;19.17;7.60;;;;;;;9.46;40.27;99260.52;262790;1100;115045;-74
2021/04/22 20:18:59;;;;;;;19.70;7.20;;;;;;;9.45;40.53;99266.78;263054;1104;115239;-75
2021/04/22 20:24:07;;;;;;;14.20;5.83;;;;;;;9.43;40.56;99259.83;262662;1101;115046;-75
2021/04/22 20:29:10;;;;;;;15.53;7.15;;;;;;;9.44;40.81;99275.70;262501;1105;114911;-76
2021/04/22 20:34:16;;;;;;;15.30;6.80;;;;;;;9.47;41.25;99264.02;262972;1101;115025;-77
2021/04/22 20:39:26;;;;;;;12.55;6.70;;;;;;;9.53;40.95;99273.48;262709;1104;115129;-76
2021/04/22 20:44:30;;;;;;;18.35;7.25;;;;;;;9.53;41.05;99284.10;262451;1101;114937;-75
2021/04/22 20:49:39;;;;;;;26.48;10.18;;;;;;;9.49;41.25;99283.41;262495;1105;115278;-74
2021/04/22 20:54:49;;;;;;;25.15;10.75;;;;;;;9.42;41.08;99289.99;262749;1101;115085;-75
2021/04/22 20:59:55;;;;;;;28.68;11.63;;;;;;;9.33;41.26;99299.30;262931;1104;115394;-76
2021/04/22 21:05:01;;;;;;;25.80;11.78;;;;;;;9.22;41.35;99304.32;262915;1100;114926;-74
2021/04/22 21:10:15;;;;;;;26.55;11.20;;;;;;;9.12;41.44;99309.24;262810;1104;115208;-77
2021/04/22 21:15:21;;;;;;;27.18;11.93;;;;;;;8.99;41.78;99322.28;263132;1100;115174;-76
2021/04/22 21:20:26;;;;;;;30.00;14.68;;;;;;;8.90;41.61;99337.81;263031;1104;115184;-72
2021/04/22 21:25:37;;;;;;;28.35;12.95;;;;;;;8.81;41.67;99346.26;262715;1100;115069;-73
2021/04/22 21:30:43;;;;;;;29.65;12.53;;;;;;;8.71;42.02;99341.39;262610;1105;114792;-76
2021/04/22 21:35:55;;;;;;;29.85;12.55;;;;;;;8.64;42.39;99339.98;263106;1099;114776;-78
2021/04/22 21:40:58;;;;;;;28.95;13.50;;;;;;;8.53;42.47;99342.31;263176;1100;114808;-79
2021/04/22 21:46:05;;;;;;;29.70;13.68;;;;;;;8.40;42.50;99352.66;262504;1101;114706;-67
2021/04/22 21:51:08;;;;;;;34.43;13.75;;;;;;;8.34;42.76;99349.40;262433;1105;115718;-66
2021/04/22 21:56:12;;;;;;;31.83;12.83;;;;;;;8.28;43.63;99371.75;262405;1102;114942;-69
2021/04/22 22:01:15;;;;;;;29.58;12.38;;;;;;;8.21;43.47;99372.97;262605;1104;115446;-69
2021/04/22 22:06:19;;;;;;;29.65;12.85;;;;;;;8.13;43.64;99373.34;262369;1100;114930;-70
2021/04/22 22:11:22;;;;;;;31.98;11.88;;;;;;;8.05;43.83;99367.55;262504;1104;115018;-69
2021/04/22 22:16:25;;;;;;;27.30;11.58;;;;;;;7.99;44.05;99367.83;262817;1100;114951;-69
2021/04/22 22:21:29;;;;;;;28.17;11.33;;;;;;;7.96;44.15;99366.17;262666;1104;114884;-71
2021/04/22 22:26:31;;;;;;;31.45;13.55;;;;;;;7.92;44.02;99369.05;262968;1100;115460;-70
2021/04/22 22:31:42;;;;;;;28.85;12.50;;;;;;;7.85;43.80;99379.06;262810;1104;115078;-67
2021/04/22 22:36:47;;;;;;;37.28;13.48;;;;;;;7.82;44.01;99382.70;262666;1100;114997;-69
2021/04/22 22:41:53;;;;;;;34.78;13.58;;;;;;;7.80;44.58;99378.39;262522;1105;114713;-68
2021/04/22 22:46:57;;;;;;;33.93;13.45;;;;;;;7.75;44.87;99380.41;263250;1099;114986;-69
2021/04/22 22:52:00;;;;;;;30.23;13.37;;;;;;;7.69;44.78;99384.18;263025;1104;114891;-67
2021/04/22 22:57:03;;;;;;;37.60;13.60;;;;;;;7.67;45.03;99383.38;263027;1099;114878;-68
2021/04/22 23:02:06;;;;;;;34.50;13.60;;;;;;;7.61;44.67;99378.38;262592;1105;114804;-67
2021/04/22 23:07:09;;;;;;;30.73;13.67;;;;;;;7.60;45.34;99381.94;262833;1100;115111;-66